createdAt,value
2022-08-23T00:01:31.407Z,98605.16
2022-08-23T00:04:07.059Z,98625.06
2022-08-23T00:06:34.464Z,98626.28
2022-08-23T00:09:06.349Z,98636.59
2022-08-23T00:12:08.556Z,98626.97
2022-08-23T00:14:42.004Z,98619.00
2022-08-23T00:17:34.022Z,98631.88
2022-08-23T00:20:02.159Z,98614.78
2022-08-23T00:22:30.978Z,98630.78
2022-08-23T00:24:58.684Z,98623.63
2022-08-23T00:27:27.091Z,98629.22
2022-08-23T00:29:55.960Z,98633.19
2022-08-23T00:32:26.215Z,98640.25
2022-08-23T00:34:54.072Z,98635.41
2022-08-23T00:37:22.225Z,98636.69
2022-08-23T00:39:49.354Z,98639.56
2022-08-23T00:42:57.357Z,98632.38
2022-08-23T00:45:58.885Z,98631.91
2022-08-23T00:48:28.874Z,98632.72
2022-08-23T00:51:16.882Z,98637.47
2022-08-23T00:53:49.060Z,98637.88
2022-08-23T00:56:18.424Z,98626.28
2022-08-23T00:58:46.527Z,98638.63
2022-08-23T01:01:15.445Z,98638.63
2022-08-23T01:03:49.836Z,98646.72
2022-08-23T01:06:35.537Z,98652.41
2022-08-23T01:09:09.426Z,98647.63
2022-08-23T01:11:42.848Z,98649.22
2022-08-23T01:14:26.243Z,98650.41
2022-08-23T01:16:56.452Z,98647.09
2022-08-23T01:19:31.817Z,98645.91
2022-08-23T01:22:30.333Z,98652.41
2022-08-23T01:25:07.943Z,98644.78
2022-08-23T01:27:41.694Z,98644.81
2022-08-23T01:30:17.397Z,98640.44
2022-08-23T01:33:12.001Z,98610.50
2022-08-23T01:35:50.460Z,98662.09
2022-08-23T01:38:21.918Z,98654.53
2022-08-23T01:40:50.582Z,98654.97
2022-08-23T01:43:21.473Z,98653.81
2022-08-23T01:45:52.480Z,98671.81
2022-08-23T01:48:23.162Z,98675.44
2022-08-23T01:50:51.380Z,98678.22
2022-08-23T01:53:19.609Z,98679.44
2022-08-23T01:55:49.794Z,98678.28
2022-08-23T01:58:19.338Z,98672.31
2022-08-23T02:00:46.573Z,98686.25
2022-08-23T02:03:14.369Z,98681.09
2022-08-23T02:05:42.767Z,98682.28
2022-08-23T02:08:30.556Z,98683.09
2022-08-23T02:10:59.823Z,98682.31
2022-08-23T02:13:27.373Z,98693.50
2022-08-23T02:15:58.539Z,98685.50
2022-08-23T02:18:26.515Z,98692.69
2022-08-23T02:20:56.881Z,98687.50
2022-08-23T02:23:24.551Z,98697.91
2022-08-23T02:25:52.710Z,98691.09
2022-08-23T02:28:21.961Z,98684.72
2022-08-23T02:30:50.721Z,98695.50
2022-08-23T02:33:20.072Z,98693.50
2022-08-23T02:35:49.061Z,98701.50
2022-08-23T02:38:18.349Z,98709.50
2022-08-23T02:40:46.029Z,98694.31
2022-08-23T02:43:13.983Z,98701.50
2022-08-23T02:45:46.150Z,98701.06
2022-08-23T02:48:18.440Z,98713.47
2022-08-23T02:51:00.883Z,98722.28
2022-08-23T02:53:27.950Z,98722.31
2022-08-23T02:55:55.976Z,98720.69
2022-08-23T02:58:24.312Z,98715.50
2022-08-23T03:00:52.443Z,98728.69
2022-08-23T03:03:22.600Z,98720.28
2022-08-23T03:05:50.902Z,98726.31
2022-08-23T03:08:23.332Z,98714.31
2022-08-23T03:10:52.989Z,98731.09
2022-08-23T03:13:21.229Z,98727.50
2022-08-23T03:15:50.362Z,98719.91
2022-08-23T03:18:17.703Z,98715.88
2022-08-23T03:20:44.991Z,98722.28
2022-08-23T03:23:13.621Z,98719.50
2022-08-23T03:25:41.217Z,98717.88
2022-08-23T03:28:17.111Z,98718.28
2022-08-23T03:30:45.793Z,98714.28
2022-08-23T03:33:18.457Z,98717.47
2022-08-23T03:35:48.182Z,98717.47
2022-08-23T03:38:19.798Z,98718.69
2022-08-23T03:40:52.535Z,98719.88
2022-08-23T03:43:20.559Z,98727.06
2022-08-23T03:45:48.059Z,98731.06
2022-08-23T03:48:16.849Z,98737.06
2022-08-23T03:50:45.261Z,98743.06
2022-08-23T03:53:15.371Z,98743.47
2022-08-23T03:55:45.235Z,98731.06
2022-08-23T03:58:17.614Z,98753.03
2022-08-23T04:00:45.590Z,98740.25
2022-08-23T04:03:13.075Z,98740.66
2022-08-23T04:06:11.690Z,98750.25
2022-08-23T04:08:39.060Z,98745.44
2022-08-23T04:11:06.595Z,98760.63
2022-08-23T04:13:36.491Z,98755.44
2022-08-23T04:16:05.190Z,98752.66
2022-08-23T04:18:43.616Z,98762.25
2022-08-23T04:21:19.496Z,98756.66
2022-08-23T04:23:49.423Z,98752.25
2022-08-23T04:26:16.733Z,98746.25
2022-08-23T04:28:45.451Z,98755.84
2022-08-23T04:31:13.317Z,98761.47
2022-08-23T04:33:43.701Z,98758.69
2022-08-23T04:36:15.181Z,98756.69
2022-08-23T04:38:42.558Z,98768.28
2022-08-23T04:41:35.470Z,98771.88
2022-08-23T04:44:03.642Z,98768.69
2022-08-23T04:46:32.215Z,98767.06
2022-08-23T04:49:02.199Z,98770.66
2022-08-23T04:51:29.890Z,98775.88
2022-08-23T04:53:57.237Z,98768.66
2022-08-23T04:56:43.306Z,98764.63
2022-08-23T04:59:13.093Z,98765.81
2022-08-23T05:01:42.990Z,98763.84
2022-08-23T05:04:10.885Z,98758.22
2022-08-23T05:06:40.254Z,98768.19
2022-08-23T05:09:07.940Z,98776.97
2022-08-23T05:11:36.401Z,98772.16
2022-08-23T05:14:04.978Z,98771.75
2022-08-23T05:16:32.571Z,98771.34
2022-08-23T05:19:09.170Z,98771.38
2022-08-23T05:21:42.595Z,98773.75
2022-08-23T05:24:13.829Z,98782.13
2022-08-23T05:26:43.462Z,98770.13
2022-08-23T05:29:11.691Z,98782.06
2022-08-23T05:31:44.899Z,98780.44
2022-08-23T05:34:16.132Z,98786.78
2022-08-23T05:36:55.673Z,98787.56
2022-08-23T05:39:35.920Z,98785.91
2022-08-23T05:42:08.545Z,98789.44
2022-08-23T05:44:37.490Z,98791.81
2022-08-23T05:47:10.379Z,98785.41
2022-08-23T05:49:47.892Z,98796.16
2022-08-23T05:52:15.444Z,98794.00
2022-08-23T05:54:44.535Z,98795.22
2022-08-23T05:57:24.656Z,98800.81
2022-08-23T05:59:52.407Z,98806.34
2022-08-23T06:02:19.707Z,98789.81
2022-08-23T06:04:47.575Z,98805.69
2022-08-23T06:07:16.761Z,98795.97
2022-08-23T06:09:43.885Z,98801.84
2022-08-23T06:12:11.815Z,98806.56
2022-08-23T06:14:39.803Z,98804.56
2022-08-23T06:17:07.196Z,98803.69
2022-08-23T06:19:35.445Z,98792.78
2022-08-23T06:22:24.859Z,98805.88
2022-08-23T06:24:52.292Z,98804.63
2022-08-23T06:27:23.811Z,98808.16
2022-08-23T06:29:51.633Z,98806.38
2022-08-23T06:32:45.095Z,98809.06
2022-08-23T06:35:42.317Z,98818.97
2022-08-23T06:38:41.270Z,98793.66
2022-08-23T06:41:23.200Z,98808.66
2022-08-23T06:44:08.638Z,98818.94
2022-08-23T06:46:56.873Z,98811.25
2022-08-23T06:49:25.762Z,98818.09
2022-08-23T06:51:56.424Z,98828.50
2022-08-23T06:54:57.748Z,98821.97
2022-08-23T06:57:54.700Z,98824.78
2022-08-23T07:00:56.756Z,98825.63
2022-08-23T07:03:36.595Z,98823.59
2022-08-23T07:06:26.998Z,98819.19
2022-08-23T07:08:54.928Z,98811.38
2022-08-23T07:11:23.927Z,98819.16
2022-08-23T07:13:53.011Z,98814.44
2022-08-23T07:16:20.704Z,98816.63
2022-08-23T07:18:50.228Z,98818.09
2022-08-23T07:21:19.734Z,98829.75
2022-08-23T07:23:47.585Z,98822.81
2022-08-23T07:26:17.701Z,98825.63
2022-08-23T07:28:45.728Z,98823.50
2022-08-23T07:31:20.179Z,98828.63
2022-08-23T07:33:48.251Z,98781.22
2022-08-23T07:36:23.465Z,98820.22
2022-08-23T07:38:54.035Z,98822.91
2022-08-23T07:41:24.747Z,98824.66
2022-08-23T07:43:52.455Z,98826.66
2022-08-23T07:46:20.080Z,98813.50
2022-08-23T07:48:54.423Z,98821.25
2022-08-23T07:51:26.296Z,98819.31
2022-08-23T07:53:54.045Z,98823.13
2022-08-23T07:56:23.135Z,98832.28
2022-08-23T07:59:02.957Z,98833.78
2022-08-23T08:01:56.859Z,98833.81
2022-08-23T08:04:25.657Z,98829.25
2022-08-23T08:07:17.231Z,98827.13
2022-08-23T08:09:44.872Z,98837.28
2022-08-23T08:12:12.911Z,98838.09
2022-08-23T08:14:43.064Z,98838.72
2022-08-23T08:17:12.593Z,98846.66
2022-08-23T08:20:06.538Z,98844.19
2022-08-23T08:22:58.526Z,98849.75
2022-08-23T08:26:07.659Z,98844.28
2022-08-23T08:28:37.161Z,98845.16
2022-08-23T08:31:08.444Z,98847.16
2022-08-23T08:33:36.444Z,98845.28
2022-08-23T08:36:06.612Z,98844.88
2022-08-23T08:38:48.220Z,98848.22
2022-08-23T08:41:25.672Z,98845.06
2022-08-23T08:44:05.431Z,98838.91
2022-08-23T08:46:45.364Z,98839.75
2022-08-23T08:49:42.265Z,98836.34
2022-08-23T08:52:31.998Z,98823.66
2022-08-23T08:55:18.241Z,98830.13
2022-08-23T08:57:49.494Z,98830.91
2022-08-23T09:00:32.529Z,98826.94
2022-08-23T09:03:03.713Z,98828.53
2022-08-23T09:05:37.082Z,98823.53
2022-08-23T09:08:24.732Z,98829.22
2022-08-23T09:11:14.056Z,98819.78
2022-08-23T09:14:08.225Z,98768.59
2022-08-23T09:16:51.206Z,98826.34
2022-08-23T09:19:21.221Z,98824.56
2022-08-23T09:22:05.411Z,98831.59
2022-08-23T09:24:32.935Z,98826.81
2022-08-23T09:27:10.166Z,98814.47
2022-08-23T09:29:52.232Z,98828.97
2022-08-23T09:32:30.056Z,98825.69
2022-08-23T09:35:18.072Z,98813.22
2022-08-23T09:38:07.266Z,98813.44
2022-08-23T09:40:45.823Z,98813.22
2022-08-23T09:43:27.396Z,98809.94
2022-08-23T09:45:59.932Z,98809.72
2022-08-23T09:48:37.112Z,98809.50
2022-08-23T09:51:25.183Z,98810.50
2022-08-23T09:54:19.175Z,98816.75
2022-08-23T09:57:00.146Z,98810.72
2022-08-23T09:59:27.556Z,98815.28
2022-08-23T10:02:02.606Z,98805.97
2022-08-23T10:04:38.014Z,98812.38
2022-08-23T10:07:53.642Z,98811.56
2022-08-23T10:10:25.727Z,98785.53
2022-08-23T10:12:57.941Z,98813.97
2022-08-23T10:16:07.901Z,98810.38
2022-08-23T10:19:02.579Z,98817.41
2022-08-23T10:21:54.786Z,98815.09
2022-08-23T10:25:02.658Z,98813.59
2022-08-23T10:27:55.841Z,98822.31
2022-08-23T10:30:33.124Z,98796.44
2022-08-23T10:33:07.389Z,98805.91
2022-08-23T10:36:11.080Z,98823.44
2022-08-23T10:38:46.433Z,98823.44
2022-08-23T10:41:33.844Z,98818.34
2022-08-23T10:44:42.004Z,98815.31
2022-08-23T10:47:29.026Z,98815.97
2022-08-23T10:50:00.836Z,98819.16
2022-08-23T10:52:40.999Z,98802.38
2022-08-23T10:55:25.000Z,98800.47
2022-08-23T10:57:54.181Z,98806.47
2022-08-23T11:00:27.234Z,98807.81
2022-08-23T11:03:08.280Z,98813.06
2022-08-23T11:05:38.878Z,98809.09
2022-08-23T11:08:47.447Z,98815.31
2022-08-23T11:11:37.281Z,98816.41
2022-08-23T11:14:05.095Z,98796.91
2022-08-23T11:16:32.907Z,98810.47
2022-08-23T11:19:00.659Z,98805.91
2022-08-23T11:21:38.636Z,98814.09
2022-08-23T11:24:11.751Z,98817.13
2022-08-23T11:26:40.984Z,98813.44
2022-08-23T11:29:12.797Z,98816.25
2022-08-23T11:31:58.855Z,98812.50
2022-08-23T11:34:48.485Z,98812.84
2022-08-23T11:37:19.184Z,98807.63
2022-08-23T11:39:59.552Z,98804.03
2022-08-23T11:42:38.730Z,98810.84
2022-08-23T11:45:40.630Z,98812.53
2022-08-23T11:48:43.519Z,98793.22
2022-08-23T11:51:17.266Z,98792.75
2022-08-23T11:54:00.380Z,98789.38
2022-08-23T11:57:03.463Z,98788.47
2022-08-23T11:59:49.276Z,98775.94
2022-08-23T12:02:34.895Z,98776.72
2022-08-23T12:05:20.692Z,98761.09
2022-08-23T12:07:55.185Z,98751.47
2022-08-23T12:10:45.613Z,98744.03
2022-08-23T12:13:22.461Z,98742.44
2022-08-23T12:16:16.963Z,98743.00
2022-08-23T12:18:57.371Z,98742.59
2022-08-23T12:21:33.337Z,98747.50
2022-08-23T12:24:24.534Z,98744.19
2022-08-23T12:27:10.806Z,98746.25
2022-08-23T12:29:59.049Z,98743.41
2022-08-23T12:33:03.046Z,98739.59
2022-08-23T12:36:01.131Z,98737.25
2022-08-23T12:38:53.731Z,98737.19
2022-08-23T12:41:30.286Z,98727.22
2022-08-23T12:44:04.584Z,98734.63
2022-08-23T12:46:43.456Z,98730.81
2022-08-23T12:49:24.844Z,98736.28
2022-08-23T12:51:55.172Z,98728.22
2022-08-23T12:54:34.939Z,98745.72
2022-08-23T12:57:10.817Z,98742.44
2022-08-23T12:59:45.358Z,98755.84
2022-08-23T13:02:26.353Z,98744.75
2022-08-23T13:04:59.642Z,98739.41
2022-08-23T13:07:27.797Z,98734.66
2022-08-23T13:09:56.967Z,98738.59
2022-08-23T13:12:26.118Z,98729.56
2022-08-23T13:14:55.305Z,98734.94
2022-08-23T13:17:25.483Z,98737.44
2022-08-23T13:20:15.304Z,98745.31
2022-08-23T13:22:56.685Z,98741.47
2022-08-23T13:25:44.351Z,98743.63
2022-08-23T13:28:31.211Z,98752.13
2022-08-23T13:31:10.856Z,98755.56
2022-08-23T13:33:41.194Z,98767.78
2022-08-23T13:36:17.731Z,98769.06
2022-08-23T13:38:46.102Z,98773.16
2022-08-23T13:41:28.674Z,98773.97
2022-08-23T13:43:56.478Z,98767.84
2022-08-23T13:46:32.219Z,98771.25
2022-08-23T13:49:11.978Z,98765.06
2022-08-23T13:51:42.154Z,98759.38
2022-08-23T13:54:14.791Z,98753.03
2022-08-23T13:56:54.077Z,98755.53
2022-08-23T13:59:52.432Z,98755.34
2022-08-23T14:02:22.448Z,98750.78
2022-08-23T14:04:49.894Z,98736.88
2022-08-23T14:07:17.997Z,98739.25
2022-08-23T14:09:45.812Z,98740.38
2022-08-23T14:12:21.789Z,98733.38
2022-08-23T14:14:50.245Z,98721.25
2022-08-23T14:17:20.602Z,98718.94
2022-08-23T14:22:36.453Z,98723.03
2022-08-23T14:25:06.806Z,98727.44
2022-08-23T14:27:35.562Z,98727.59
2022-08-23T14:30:05.747Z,98718.75
2022-08-23T14:32:33.286Z,98727.72
2022-08-23T14:35:01.062Z,98723.53
2022-08-23T14:40:18.549Z,98737.16
2022-08-23T14:42:47.294Z,98733.66
2022-08-23T14:45:16.530Z,98751.44
2022-08-23T14:47:44.149Z,98759.84
2022-08-23T14:50:13.489Z,98774.59
2022-08-23T14:52:45.799Z,98797.31
2022-08-23T14:55:15.716Z,98787.94
2022-08-23T14:57:43.989Z,98797.91
2022-08-23T15:00:15.480Z,98796.41
2022-08-23T15:02:46.210Z,98790.72
2022-08-23T15:05:14.322Z,98799.69
2022-08-23T15:07:41.739Z,98791.53
2022-08-23T15:10:10.113Z,98779.53
2022-08-23T15:15:26.883Z,98772.75
2022-08-23T15:17:59.148Z,98773.63
2022-08-23T15:20:31.147Z,98768.78
2022-08-23T15:23:00.420Z,98752.78
2022-08-23T15:25:34.510Z,98761.97
2022-08-23T15:28:02.552Z,98759.59
2022-08-23T15:30:30.378Z,98761.91
2022-08-23T15:33:01.751Z,98758.53
2022-08-23T15:35:33.072Z,98744.97
2022-08-23T15:38:00.274Z,98773.53
2022-08-23T15:40:27.625Z,98772.47
2022-08-23T15:42:57.060Z,98781.44
2022-08-23T15:45:26.262Z,98798.75
2022-08-23T15:47:56.016Z,98808.44
2022-08-23T15:50:28.101Z,98799.19
2022-08-23T15:53:01.715Z,98796.78
2022-08-23T15:55:32.959Z,98802.44
2022-08-23T15:58:00.554Z,98798.09
2022-08-23T16:00:28.393Z,98799.84
2022-08-23T16:03:19.989Z,98794.13
2022-08-23T16:05:46.402Z,98778.66
2022-08-23T16:08:26.971Z,98773.06
2022-08-23T16:10:55.539Z,98767.69
2022-08-23T16:13:24.238Z,98760.84
2022-08-23T16:15:52.332Z,98768.31
2022-08-23T16:18:20.120Z,98773.22
2022-08-23T16:20:47.503Z,98747.59
2022-08-23T16:23:15.151Z,98736.34
2022-08-23T16:25:43.300Z,98770.66
2022-08-23T16:28:11.089Z,98772.97
2022-08-23T16:30:38.709Z,98781.56
2022-08-23T16:33:06.222Z,98781.41
2022-08-23T16:35:33.756Z,98779.22
2022-08-23T16:38:01.035Z,98784.84
2022-08-23T16:40:28.623Z,98810.06
2022-08-23T16:42:56.478Z,98804.88
2022-08-23T16:45:25.851Z,98808.47
2022-08-23T16:47:53.822Z,98835.88
2022-08-23T16:50:21.693Z,98856.78
2022-08-23T16:52:49.139Z,98854.41
2022-08-23T16:55:17.166Z,98872.03
2022-08-23T16:57:44.782Z,98856.84
2022-08-23T17:00:14.252Z,98867.28
2022-08-23T17:02:43.329Z,98873.78
2022-08-23T17:05:15.559Z,98879.38
2022-08-23T17:07:43.382Z,98901.09
2022-08-23T17:10:12.898Z,98895.97
2022-08-23T17:12:45.254Z,98882.66
2022-08-23T17:15:18.885Z,98873.09
2022-08-23T17:17:48.903Z,98873.97
2022-08-23T17:20:16.929Z,98894.75
2022-08-23T17:22:44.420Z,98889.22
2022-08-23T17:25:12.541Z,98900.38
2022-08-23T17:27:45.462Z,98910.28
2022-08-23T17:30:16.485Z,98901.47
2022-08-23T17:32:44.408Z,98901.19
2022-08-23T17:35:15.007Z,98885.97
2022-08-23T17:37:43.427Z,98866.88
2022-08-23T17:40:14.956Z,98884.56
2022-08-23T17:42:42.958Z,98890.94
2022-08-23T17:45:11.689Z,98887.41
2022-08-23T17:47:39.701Z,98888.78
2022-08-23T17:50:12.795Z,98894.38
2022-08-23T17:52:41.460Z,98902.72
2022-08-23T17:55:10.614Z,98894.41
2022-08-23T17:57:39.445Z,98892.03
2022-08-23T18:00:08.674Z,98882.44
2022-08-23T18:02:38.114Z,98872.81
2022-08-23T18:05:08.127Z,98878.53
2022-08-23T18:07:35.342Z,98882.59
2022-08-23T18:10:08.414Z,98893.06
2022-08-23T18:12:35.843Z,98891.91
2022-08-23T18:15:06.110Z,98899.59
2022-08-23T18:17:34.881Z,98921.31
2022-08-23T18:20:02.214Z,98918.94
2022-08-23T18:22:30.578Z,98931.41
2022-08-23T18:24:57.899Z,98943.91
2022-08-23T18:27:43.585Z,98947.47
2022-08-23T18:30:11.765Z,98947.91
2022-08-23T18:32:39.091Z,98946.75
2022-08-23T18:35:08.163Z,98948.31
2022-08-23T18:37:35.481Z,98946.31
2022-08-23T18:40:06.553Z,98937.91
2022-08-23T18:42:36.490Z,98940.72
2022-08-23T18:45:07.114Z,98937.91
2022-08-23T18:47:35.072Z,98944.72
2022-08-23T18:50:02.539Z,98938.34
2022-08-23T18:52:32.465Z,98939.97
2022-08-23T18:54:59.772Z,98936.75
2022-08-23T18:57:27.025Z,98939.97
2022-08-23T18:59:54.325Z,98937.22
2022-08-23T19:02:23.049Z,98948.06
2022-08-23T19:04:50.829Z,98958.50
2022-08-23T19:07:20.548Z,98960.91
2022-08-23T19:09:47.899Z,98950.47
2022-08-23T19:12:17.748Z,98949.72
2022-08-23T19:14:45.362Z,98943.75
2022-08-23T19:17:12.680Z,98947.38
2022-08-23T19:19:40.119Z,98940.16
2022-08-23T19:22:07.432Z,98941.78
2022-08-23T19:24:34.908Z,98948.59
2022-08-23T19:27:02.299Z,98950.59
2022-08-23T19:29:29.699Z,98947.38
2022-08-23T19:31:57.014Z,98957.03
2022-08-23T19:34:25.003Z,98955.44
2022-08-23T19:37:00.615Z,98955.88
2022-08-23T19:39:38.302Z,98959.91
2022-08-23T19:42:11.484Z,98965.13
2022-08-23T19:44:42.099Z,98971.59
2022-08-23T19:47:13.393Z,98978.00
2022-08-23T19:49:48.866Z,98965.63
2022-08-23T19:52:16.110Z,98963.22
2022-08-23T19:54:43.397Z,98971.25
2022-08-23T19:57:11.685Z,98966.84
2022-08-23T19:59:40.442Z,98984.47
2022-08-23T20:02:09.728Z,98990.06
2022-08-23T20:04:37.338Z,98976.47
2022-08-23T20:07:05.474Z,98984.47
2022-08-23T20:09:33.529Z,98980.50
2022-08-23T20:12:01.741Z,98990.09
2022-08-23T20:14:33.776Z,99002.50
2022-08-23T20:17:03.498Z,98987.66
2022-08-23T20:19:31.515Z,98985.25
2022-08-23T20:22:18.611Z,98981.66
2022-08-23T20:24:51.881Z,99002.09
2022-08-23T20:27:29.013Z,99008.53
2022-08-23T20:30:01.877Z,99009.31
2022-08-23T20:32:31.417Z,99016.53
2022-08-23T20:35:00.296Z,99019.72
2022-08-23T20:37:27.671Z,99008.91
2022-08-23T20:39:55.478Z,99036.56
2022-08-23T20:42:23.810Z,99027.72
2022-08-23T20:44:51.688Z,99030.59
2022-08-23T20:47:19.006Z,99024.63
2022-08-23T20:49:46.442Z,99033.88
2022-08-23T20:52:13.651Z,99041.47
2022-08-23T20:54:40.923Z,99036.28
2022-08-23T20:57:07.958Z,99031.47
2022-08-23T20:59:35.827Z,99037.09
2022-08-23T21:02:02.968Z,99037.47
2022-08-23T21:04:30.604Z,99045.50
2022-08-23T21:06:58.277Z,99050.28
2022-08-23T21:09:29.510Z,99034.66
2022-08-23T21:11:57.726Z,99031.88
2022-08-23T21:14:24.997Z,99019.06
2022-08-23T21:16:53.079Z,99005.41
2022-08-23T21:19:20.289Z,98999.44
2022-08-23T21:21:47.754Z,98987.38
2022-08-23T21:24:15.880Z,99000.63
2022-08-23T21:26:43.251Z,99006.22
2022-08-23T21:29:11.119Z,99022.66
2022-08-23T21:31:38.982Z,99050.72
2022-08-23T21:34:07.758Z,99048.31
2022-08-23T21:36:37.567Z,99042.31
2022-08-23T21:39:05.704Z,99035.50
2022-08-23T21:41:37.455Z,99037.09
2022-08-23T21:44:07.409Z,99029.50
2022-08-23T21:46:35.718Z,99027.09
2022-08-23T21:49:03.736Z,99031.50
2022-08-23T21:51:31.569Z,99034.31
2022-08-23T21:54:02.236Z,99040.34
2022-08-23T21:56:30.287Z,99023.91
2022-08-23T21:59:02.843Z,99033.94
2022-08-23T22:01:31.704Z,99016.31
2022-08-23T22:03:59.915Z,99008.31
2022-08-23T22:06:27.459Z,99000.31
2022-08-23T22:08:55.967Z,99008.72
2022-08-23T22:11:26.071Z,98996.69
2022-08-23T22:13:55.928Z,98995.09
2022-08-23T22:16:23.597Z,99003.09
2022-08-23T22:18:50.759Z,99003.91
2022-08-23T22:21:18.099Z,98996.69
2022-08-23T22:23:45.378Z,99011.09
2022-08-23T22:26:14.111Z,99014.31
2022-08-23T22:28:44.870Z,98999.91
2022-08-23T22:31:14.674Z,98999.91
2022-08-23T22:33:43.293Z,99006.72
2022-08-23T22:36:16.634Z,99007.91
2022-08-23T22:38:44.618Z,99003.91
2022-08-23T22:41:15.792Z,98995.09
2022-08-23T22:43:42.810Z,98990.28
2022-08-23T22:46:11.090Z,98985.88
2022-08-23T22:48:38.359Z,98989.91
2022-08-23T22:51:22.241Z,98997.09
2022-08-23T22:53:53.466Z,98992.69
2022-08-23T22:56:24.920Z,99016.72
2022-08-23T22:58:54.774Z,99019.09
2022-08-23T23:01:35.023Z,99018.31
2022-08-23T23:04:05.003Z,99022.28
2022-08-23T23:06:32.565Z,99027.91
2022-08-23T23:09:00.656Z,99029.50
2022-08-23T23:11:29.397Z,99035.09
2022-08-23T23:13:58.042Z,99024.28
2022-08-23T23:16:27.641Z,99026.28
2022-08-23T23:19:14.634Z,99029.91
2022-08-23T23:21:46.904Z,99034.69
2022-08-23T23:24:26.282Z,99032.69
2022-08-23T23:26:53.700Z,99025.91
2022-08-23T23:29:21.711Z,99028.69
2022-08-23T23:31:52.403Z,99023.50
2022-08-23T23:34:21.485Z,99021.88
2022-08-23T23:36:48.673Z,99015.09
2022-08-23T23:39:16.517Z,99021.50
2022-08-23T23:41:43.906Z,99023.09
2022-08-23T23:44:11.160Z,99036.72
2022-08-23T23:46:38.547Z,99030.31
2022-08-23T23:49:05.708Z,99024.69
2022-08-23T23:51:33.584Z,99035.91
2022-08-23T23:54:01.366Z,99040.31
2022-08-23T23:56:30.788Z,99051.94
2022-08-23T23:58:59.352Z,99057.53
